Time;durP1;ratioP1;P1;durP2;ratioP2;P2;SDS_P1;SDS_P2;PMS_P1;PMS_P2;Temp;Humidity;BMP_temperature;BMP_pressure;BME280_temperature;BME280_humidity;BME280_pressure;Samples;Min_cycle;Max_cycle;Signal;HPM_P1;HPM_P2
2023/08/14 00:02:37;;;;;;;17.07;16.47;;;21.90;99.90;;;;;;4904115;29;20464;-86
2023/08/14 00:05:12;;;;;;;17.53;16.63;;;21.90;1.00;;;;;;4911737;29;20488;-86
2023/08/14 00:07:52;;;;;;;17.07;16.27;;;21.90;1.00;;;;;;4905571;29;20457;-85
2023/08/14 00:10:33;;;;;;;17.70;16.73;;;21.90;1.00;;;;;;4906609;29;20974;-87
2023/08/14 00:13:04;;;;;;;17.07;16.27;;;21.80;1.00;;;;;;4906640;29;20462;-86
2023/08/14 00:15:36;;;;;;;17.20;16.40;;;21.90;1.00;;;;;;4905712;29;21058;-88
2023/08/14 00:18:11;;;;;;;16.63;16.03;;;21.80;1.00;;;;;;4906910;29;20464;-85
2023/08/14 00:20:49;;;;;;;17.87;16.93;;;21.90;1.00;;;;;;4905825;29;20461;-86
2023/08/14 00:23:27;;;;;;;17.67;16.87;;;21.90;1.00;;;;;;4904796;29;20480;-88
2023/08/14 00:26:03;;;;;;;17.23;16.33;;;21.90;1.00;;;;;;4905811;29;20510;-87
2023/08/14 00:28:35;;;;;;;17.70;16.60;;;21.90;1.00;;;;;;4903593;29;20472;-85
2023/08/14 00:31:09;;;;;;;17.17;16.47;;;21.90;1.00;;;;;;4904538;29;20550;-86
2023/08/14 00:33:45;;;;;;;16.67;16.07;;;21.90;1.00;;;;;;4905316;29;21107;-88
2023/08/14 00:36:25;;;;;;;17.03;16.43;;;21.90;1.00;;;;;;4905214;29;20476;-86
2023/08/14 00:39:03;;;;;;;16.93;16.33;;;21.90;1.00;;;;;;4905312;29;21068;-88
2023/08/14 00:41:40;;;;;;;16.77;16.17;;;21.90;1.00;;;;;;4905291;29;20462;-86
2023/08/14 00:44:13;;;;;;;17.43;16.30;;;22.00;1.00;;;;;;4912031;29;20955;-85
2023/08/14 00:46:44;;;;;;;16.23;15.63;;;21.90;1.00;;;;;;4903986;29;20492;-85
2023/08/14 00:49:20;;;;;;;17.40;16.50;;;21.90;1.00;;;;;;4904390;29;20462;-86
2023/08/14 00:52:00;;;;;;;17.20;16.40;;;21.90;1.00;;;;;;4901669;29;20461;-90
2023/08/14 00:54:35;;;;;;;17.50;16.70;;;21.90;1.00;;;;;;4903876;29;20490;-85
2023/08/14 00:57:19;;;;;;;16.67;15.97;;;21.90;1.00;;;;;;4903149;29;20768;-86
2023/08/14 00:59:53;;;;;;;17.10;16.40;;;21.90;1.00;;;;;;4904007;29;20475;-86
2023/08/14 01:02:28;;;;;;;16.43;15.83;;;22.00;1.00;;;;;;4899501;29;20474;-85
2023/08/14 01:05:05;;;;;;;16.60;16.00;;;21.90;1.00;;;;;;4902621;29;20856;-86
2023/08/14 01:07:41;;;;;;;17.23;16.40;;;21.90;1.00;;;;;;4905138;29;20545;-87
2023/08/14 01:10:16;;;;;;;17.30;16.60;;;21.90;1.00;;;;;;4904014;29;20464;-86
2023/08/14 01:12:57;;;;;;;17.50;16.73;;;21.90;1.00;;;;;;4908303;29;20450;-85
2023/08/14 01:15:36;;;;;;;17.93;17.13;;;21.90;1.00;;;;;;4902851;29;20923;-85
2023/08/14 01:18:11;;;;;;;17.20;16.47;;;21.80;1.00;;;;;;4903793;29;20458;-86
2023/08/14 01:20:53;;;;;;;16.93;16.13;;;21.80;1.00;;;;;;4900896;29;20450;-87
2023/08/14 01:23:26;;;;;;;17.17;16.57;;;21.90;1.00;;;;;;4900863;29;20454;-85
2023/08/14 01:26:08;;;;;;;17.33;16.60;;;21.80;1.00;;;;;;4903606;29;20508;-85
2023/08/14 01:28:44;;;;;;;16.87;16.27;;;21.80;1.00;;;;;;4903217;29;20461;-86
2023/08/14 01:31:24;;;;;;;17.97;17.17;;;21.90;1.00;;;;;;4905640;29;20460;-85
2023/08/14 01:33:59;;;;;;;18.00;17.20;;;21.90;1.00;;;;;;4904607;29;20468;-88
2023/08/14 01:36:45;;;;;;;17.70;17.00;;;21.90;1.00;;;;;;4904716;29;20484;-85
2023/08/14 01:39:27;;;;;;;16.07;15.47;;;21.90;1.00;;;;;;4904801;29;20454;-86
2023/08/14 01:42:14;;;;;;;16.00;15.50;;;21.90;1.00;;;;;;4905485;29;20462;-86
2023/08/14 01:44:57;;;;;;;15.90;15.30;;;21.80;1.00;;;;;;4905808;29;20482;-85
2023/08/14 01:47:32;;;;;;;15.50;15.00;;;21.80;1.00;;;;;;4908987;29;20480;-85
2023/08/14 01:50:11;;;;;;;16.47;15.70;;;21.80;1.00;;;;;;4902919;29;20498;-88
2023/08/14 01:52:39;;;;;;;15.77;15.20;;;21.80;1.00;;;;;;4906162;29;20462;-85
2023/08/14 01:55:13;;;;;;;16.00;15.30;;;21.80;1.00;;;;;;4903608;29;20485;-86
2023/08/14 01:57:46;;;;;;;15.70;15.10;;;21.90;1.00;;;;;;4906517;29;20456;-85
2023/08/14 02:00:23;;;;;;;15.20;14.50;;;21.90;1.00;;;;;;4903671;29;20473;-86
2023/08/14 02:02:57;;;;;;;15.30;14.80;;;21.90;1.00;;;;;;4905787;29;20469;-85
2023/08/14 02:05:26;;;;;;;16.03;15.30;;;21.90;1.00;;;;;;4904776;29;20573;-85
2023/08/14 02:07:59;;;;;;;15.37;14.87;;;21.90;1.00;;;;;;4907623;29;20461;-86
2023/08/14 02:10:32;;;;;;;15.83;15.20;;;21.90;1.00;;;;;;4904572;29;21179;-86
2023/08/14 02:13:05;;;;;;;15.77;15.27;;;21.90;1.00;;;;;;4904839;29;20445;-87
2023/08/14 02:15:42;;;;;;;16.10;15.40;;;21.90;1.00;;;;;;4902694;28;20492;-83
2023/08/14 02:18:15;;;;;;;16.00;15.30;;;21.90;1.00;;;;;;4902570;29;20465;-88
2023/08/14 02:20:53;;;;;;;16.60;15.80;;;21.90;1.00;;;;;;4905655;29;20867;-85
2023/08/14 02:23:30;;;;;;;15.63;15.03;;;21.90;1.00;;;;;;4910881;29;21027;-86
2023/08/14 02:26:02;;;;;;;16.00;15.37;;;21.80;1.00;;;;;;4906512;29;20496;-86
2023/08/14 02:28:35;;;;;;;16.00;15.37;;;21.90;1.00;;;;;;4909365;29;20473;-86
2023/08/14 02:31:06;;;;;;;16.90;16.10;;;21.80;1.00;;;;;;4913204;29;20517;-85
2023/08/14 02:33:46;;;;;;;16.00;15.40;;;21.80;1.00;;;;;;4912182;29;20463;-85
2023/08/14 02:36:23;;;;;;;16.40;15.70;;;21.80;1.00;;;;;;4907526;29;20478;-86
2023/08/14 02:38:56;;;;;;;15.97;15.37;;;21.70;1.00;;;;;;4909190;29;20468;-85
2023/08/14 02:41:26;;;;;;;16.20;15.60;;;21.60;1.00;;;;;;4903618;29;20462;-85
2023/08/14 02:43:59;;;;;;;16.60;15.60;;;21.50;1.00;;;;;;4907982;29;20954;-87
2023/08/14 02:46:29;;;;;;;16.03;15.33;;;21.50;1.00;;;;;;4908925;29;20515;-84
2023/08/14 02:49:03;;;;;;;15.83;15.23;;;21.50;1.00;;;;;;4909116;29;20476;-85
2023/08/14 02:51:35;;;;;;;15.63;15.03;;;21.50;1.00;;;;;;4908859;29;20469;-84
2023/08/14 02:54:06;;;;;;;15.33;14.83;;;21.50;1.00;;;;;;4906582;29;20739;-85
2023/08/14 02:56:43;;;;;;;16.03;15.43;;;21.60;1.00;;;;;;4912178;29;20542;-85
2023/08/14 02:59:23;;;;;;;16.60;15.80;;;21.50;1.00;;;;;;4907673;29;20501;-87
2023/08/14 03:02:01;;;;;;;16.00;15.40;;;21.60;1.00;;;;;;4905546;29;21212;-85
2023/08/14 03:04:34;;;;;;;15.93;15.33;;;21.60;1.00;;;;;;4906283;29;20458;-84
2023/08/14 03:07:03;;;;;;;15.63;15.03;;;21.50;1.00;;;;;;4905994;29;20514;-87
2023/08/14 03:09:37;;;;;;;15.30;14.60;;;21.50;1.00;;;;;;4906105;29;20564;-85
2023/08/14 03:12:10;;;;;;;15.40;14.60;;;21.40;1.00;;;;;;4908129;29;20461;-85
2023/08/14 03:14:42;;;;;;;15.60;15.10;;;21.50;1.00;;;;;;4903842;29;20526;-85
2023/08/14 03:17:31;;;;;;;15.30;14.80;;;21.40;1.00;;;;;;4906861;29;20473;-85
2023/08/14 03:20:12;;;;;;;14.80;14.40;;;21.50;1.00;;;;;;4902472;29;20466;-87
2023/08/14 03:22:43;;;;;;;15.57;15.00;;;21.40;1.00;;;;;;4907130;29;20987;-85
2023/08/14 03:25:12;;;;;;;16.90;15.73;;;21.40;1.00;;;;;;4906387;29;20590;-85
2023/08/14 03:27:46;;;;;;;15.67;15.17;;;21.40;1.00;;;;;;4905757;29;21038;-87
2023/08/14 03:30:21;;;;;;;15.63;15.00;;;21.40;1.00;;;;;;4907291;29;20466;-85
2023/08/14 03:32:58;;;;;;;15.93;15.20;;;21.40;1.00;;;;;;4907781;29;20493;-86
2023/08/14 03:35:35;;;;;;;16.03;15.33;;;21.30;1.00;;;;;;4906973;29;20521;-85
2023/08/14 03:38:10;;;;;;;15.30;14.70;;;21.30;1.00;;;;;;4906548;29;21039;-86
2023/08/14 03:40:44;;;;;;;15.20;14.60;;;21.30;1.00;;;;;;4904576;29;20465;-86
2023/08/14 03:43:15;;;;;;;15.63;14.90;;;21.30;1.00;;;;;;4905954;29;20556;-86
2023/08/14 03:45:54;;;;;;;16.23;15.43;;;21.30;1.00;;;;;;4907268;29;20480;-85
2023/08/14 03:48:32;;;;;;;16.57;15.77;;;21.20;1.00;;;;;;4903349;29;20586;-85
2023/08/14 03:51:00;;;;;;;15.90;15.10;;;21.10;1.00;;;;;;4905319;29;20575;-86
2023/08/14 03:53:33;;;;;;;15.80;15.10;;;21.10;1.00;;;;;;4906085;29;20488;-85
2023/08/14 03:56:09;;;;;;;15.40;14.90;;;21.10;1.00;;;;;;4904636;29;20469;-85
2023/08/14 03:58:46;;;;;;;16.50;15.97;;;21.10;1.00;;;;;;4904304;29;20447;-85
2023/08/14 04:01:21;;;;;;;15.70;15.10;;;21.10;1.00;;;;;;4902479;29;20833;-85
2023/08/14 04:03:53;;;;;;;15.47;14.87;;;21.10;1.00;;;;;;4904920;29;20477;-88
2023/08/14 04:06:23;;;;;;;16.20;15.50;;;21.10;1.00;;;;;;4905104;29;20502;-84
2023/08/14 04:09:01;;;;;;;15.60;15.00;;;21.10;1.00;;;;;;4904201;29;20572;-87
2023/08/14 04:11:36;;;;;;;15.80;15.20;;;21.10;1.00;;;;;;4904449;29;20553;-85
2023/08/14 04:14:16;;;;;;;15.60;14.90;;;21.10;1.00;;;;;;4904874;29;20509;-85
2023/08/14 04:16:48;;;;;;;15.70;15.10;;;21.10;1.00;;;;;;4904687;29;20553;-85
2023/08/14 04:19:24;;;;;;;15.33;14.70;;;21.10;1.00;;;;;;4919318;29;20560;-85
2023/08/14 04:21:56;;;;;;;15.13;14.63;;;21.00;1.00;;;;;;4904558;29;20452;-86
2023/08/14 04:24:24;;;;;;;17.70;16.73;;;21.00;1.00;;;;;;4905792;29;20451;-85
2023/08/14 04:27:01;;;;;;;31.57;28.20;;;21.00;1.00;;;;;;4905337;29;20466;-86
2023/08/14 04:29:32;;;;;;;18.37;17.20;;;20.90;1.00;;;;;;4905471;29;20482;-86
2023/08/14 04:32:03;;;;;;;17.47;16.50;;;20.90;1.00;;;;;;4906954;29;20487;-86
2023/08/14 04:34:36;;;;;;;19.00;17.93;;;20.90;1.00;;;;;;4905654;29;20465;-86
2023/08/14 04:37:06;;;;;;;17.70;16.70;;;21.00;1.00;;;;;;4903814;29;20513;-86
2023/08/14 04:39:39;;;;;;;17.00;16.10;;;20.90;1.00;;;;;;4904735;29;20469;-85
2023/08/14 04:42:13;;;;;;;18.40;17.30;;;20.90;1.00;;;;;;4904242;29;20493;-85
2023/08/14 04:44:53;;;;;;;16.23;15.63;;;20.90;1.00;;;;;;4904175;29;20488;-87
2023/08/14 04:47:28;;;;;;;16.40;15.70;;;20.80;1.00;;;;;;4904636;29;21087;-85
2023/08/14 04:50:03;;;;;;;16.97;15.97;;;20.90;1.00;;;;;;4903787;29;20537;-85
2023/08/14 04:52:36;;;;;;;16.83;16.17;;;20.90;1.00;;;;;;4907680;29;20460;-85
2023/08/14 04:55:09;;;;;;;16.83;16.13;;;20.90;1.00;;;;;;4905968;29;20489;-87
2023/08/14 04:57:46;;;;;;;16.50;15.90;;;20.90;1.00;;;;;;4904259;29;20566;-85
2023/08/14 05:00:23;;;;;;;17.00;16.20;;;20.90;1.00;;;;;;4899880;29;20466;-85
2023/08/14 05:03:08;;;;;;;16.70;16.00;;;20.90;1.00;;;;;;4906945;29;20536;-86
2023/08/14 05:05:37;;;;;;;17.70;16.90;;;20.90;1.00;;;;;;4905423;29;20534;-86
2023/08/14 05:08:11;;;;;;;16.70;15.97;;;20.90;1.00;;;;;;4904308;29;20486;-85
2023/08/14 05:10:40;;;;;;;16.90;16.10;;;21.00;1.00;;;;;;4910048;29;20446;-86
2023/08/14 05:13:16;;;;;;;16.60;15.90;;;20.90;1.00;;;;;;4908005;29;21239;-86
2023/08/14 05:15:54;;;;;;;16.10;15.50;;;20.90;1.00;;;;;;4907998;29;20514;-86
2023/08/14 05:18:47;;;;;;;16.80;16.10;;;21.00;1.00;;;;;;4902792;29;20477;-86
2023/08/14 05:21:19;;;;;;;16.10;15.50;;;21.00;1.00;;;;;;4906346;29;20457;-85
2023/08/14 05:23:53;;;;;;;16.10;15.50;;;21.10;1.00;;;;;;4907779;29;20449;-86
2023/08/14 05:26:27;;;;;;;16.30;15.73;;;21.20;1.00;;;;;;4902940;29;20493;-86
2023/08/14 05:29:00;;;;;;;15.60;15.10;;;21.30;99.90;;;;;;4905046;29;20480;-85
2023/08/14 05:31:38;;;;;;;16.77;16.20;;;21.30;1.00;;;;;;4907878;29;20456;-86
2023/08/14 05:34:13;;;;;;;16.27;15.73;;;21.30;1.00;;;;;;4903527;29;20473;-85
2023/08/14 05:36:52;;;;;;;16.73;16.13;;;21.30;99.90;;;;;;4903296;29;20576;-87
2023/08/14 05:39:29;;;;;;;16.63;15.93;;;21.30;1.00;;;;;;4903504;29;20518;-85
2023/08/14 05:42:02;;;;;;;16.07;15.57;;;21.30;1.00;;;;;;4902298;29;20547;-86
2023/08/14 05:44:39;;;;;;;16.30;15.70;;;21.30;1.00;;;;;;4901997;29;20830;-85
2023/08/14 05:47:10;;;;;;;16.67;16.07;;;21.40;1.00;;;;;;4905455;29;20446;-89
2023/08/14 05:49:46;;;;;;;16.53;15.80;;;21.30;1.00;;;;;;4904733;29;20480;-85
2023/08/14 05:52:17;;;;;;;16.97;15.80;;;21.30;1.00;;;;;;4910256;29;20459;-86
2023/08/14 05:54:52;;;;;;;16.07;15.57;;;21.20;1.00;;;;;;4907204;29;20482;-86
2023/08/14 05:57:31;;;;;;;16.97;16.10;;;21.30;1.00;;;;;;4907678;29;20462;-86
2023/08/14 06:00:05;;;;;;;16.27;15.67;;;21.30;1.00;;;;;;4907979;29;20524;-86
2023/08/14 06:02:34;;;;;;;16.83;16.00;;;21.30;1.00;;;;;;4907377;29;20454;-86
2023/08/14 06:05:16;;;;;;;16.23;15.63;;;21.20;1.00;;;;;;4905171;29;20498;-88
2023/08/14 06:07:51;;;;;;;16.67;15.77;;;21.20;1.00;;;;;;4908394;29;20449;-85
2023/08/14 06:10:20;;;;;;;16.10;15.50;;;21.30;1.00;;;;;;4906123;29;20473;-85
2023/08/14 06:12:54;;;;;;;16.10;15.50;;;21.20;99.90;;;;;;4908245;29;20958;-86
2023/08/14 06:15:28;;;;;;;17.57;16.70;;;21.30;1.00;;;;;;4908272;29;20817;-86
2023/08/14 06:18:00;;;;;;;16.30;15.60;;;21.30;1.00;;;;;;4905854;29;20449;-87
2023/08/14 06:20:43;;;;;;;16.13;15.53;;;21.30;1.00;;;;;;4906874;29;20556;-86
2023/08/14 06:23:14;;;;;;;16.97;16.27;;;21.30;1.00;;;;;;4905204;29;20927;-86
2023/08/14 06:25:56;;;;;;;16.60;15.90;;;21.30;1.00;;;;;;4907386;29;20484;-86
2023/08/14 06:28:36;;;;;;;16.90;16.30;;;21.40;1.00;;;;;;4911776;29;20476;-85
2023/08/14 06:31:08;;;;;;;17.60;16.90;;;21.40;1.00;;;;;;4906012;29;20466;-89
2023/08/14 06:33:49;;;;;;;17.93;17.10;;;21.50;1.00;;;;;;4908498;29;20460;-86
2023/08/14 06:36:22;;;;;;;17.37;16.67;;;21.50;1.00;;;;;;4912378;29;21030;-85
2023/08/14 06:38:55;;;;;;;17.03;16.30;;;21.60;1.00;;;;;;4905879;28;20993;-87
2023/08/14 06:41:27;;;;;;;17.03;16.43;;;21.70;1.00;;;;;;4907964;29;20456;-85
2023/08/14 06:43:59;;;;;;;17.17;16.37;;;21.60;1.00;;;;;;4907548;29;20465;-85
2023/08/14 06:46:28;;;;;;;16.60;16.00;;;21.80;1.00;;;;;;4905862;29;20953;-87
2023/08/14 06:48:58;;;;;;;16.67;16.00;;;22.00;1.00;;;;;;4908536;29;20512;-85
2023/08/14 06:51:38;;;;;;;16.43;15.83;;;22.20;99.90;;;;;;4909176;29;20512;-88
2023/08/14 06:54:14;;;;;;;17.00;16.40;;;22.50;99.90;;;;;;4907837;29;20476;-86
2023/08/14 06:56:49;;;;;;;17.47;16.77;;;22.70;1.00;;;;;;4907185;29;20576;-85
2023/08/14 06:59:22;;;;;;;17.87;17.17;;;22.90;1.00;;;;;;4921574;29;20455;-86
2023/08/14 07:01:54;;;;;;;17.27;16.57;;;23.00;72.00;;;;;;4903850;29;20980;-86
2023/08/14 07:04:27;;;;;;;17.10;16.50;;;23.30;1.00;;;;;;4906954;29;21033;-85
2023/08/14 07:07:03;;;;;;;17.93;17.13;;;23.60;99.90;;;;;;4906385;29;20562;-84
2023/08/14 07:09:41;;;;;;;17.50;16.80;;;23.80;1.00;;;;;;4908156;29;20497;-86
2023/08/14 07:12:13;;;;;;;17.20;16.60;;;23.90;99.90;;;;;;4905390;29;20485;-86
2023/08/14 07:14:51;;;;;;;18.20;17.40;;;24.00;1.00;;;;;;4905422;28;20517;-86
2023/08/14 07:17:22;;;;;;;17.73;17.10;;;24.00;1.00;;;;;;4908865;29;20472;-85
2023/08/14 07:20:07;;;;;;;18.00;17.17;;;24.10;99.90;;;;;;4908013;29;21120;-85
2023/08/14 07:22:58;;;;;;;18.73;17.83;;;24.10;1.00;;;;;;4906984;29;20461;-87
2023/08/14 07:25:29;;;;;;;17.63;16.93;;;24.20;1.00;;;;;;4906104;29;20474;-85
2023/08/14 07:28:04;;;;;;;18.00;17.30;;;24.20;1.00;;;;;;4905748;29;20458;-85
2023/08/14 07:30:32;;;;;;;18.33;17.57;;;24.20;99.90;;;;;;4924296;29;21014;-86
2023/08/14 07:33:10;;;;;;;17.20;16.60;;;24.10;1.00;;;;;;4907697;29;20586;-86
2023/08/14 07:35:47;;;;;;;17.87;17.27;;;24.10;18.40;;;;;;4911103;29;20500;-87
2023/08/14 07:38:20;;;;;;;18.63;17.87;;;24.20;99.90;;;;;;4908477;29;20527;-85
2023/08/14 07:40:56;;;;;;;18.03;17.33;;;24.20;1.00;;;;;;4909425;29;20450;-86
2023/08/14 07:43:31;;;;;;;18.10;17.50;;;24.10;99.90;;;;;;4905409;29;20473;-86
2023/08/14 07:46:02;;;;;;;18.20;17.50;;;24.00;1.00;;;;;;4907480;29;20465;-85
2023/08/14 07:48:37;;;;;;;18.27;17.57;;;24.20;29.40;;;;;;4906239;29;20469;-87
2023/08/14 07:51:14;;;;;;;17.33;16.77;;;24.30;99.90;;;;;;4910615;29;20426;-86
2023/08/14 07:54:00;;;;;;;18.57;17.77;;;24.30;1.00;;;;;;4904882;29;20457;-87
2023/08/14 07:56:31;;;;;;;18.13;17.33;;;24.50;23.30;;;;;;4910743;29;20996;-86
2023/08/14 07:59:00;;;;;;;17.50;16.70;;;24.30;99.90;;;;;;4907099;29;20453;-85
2023/08/14 08:01:35;;;;;;;17.97;17.20;;;24.30;1.00;;;;;;4904414;29;20525;-86
2023/08/14 08:04:09;;;;;;;17.80;17.03;;;24.40;99.90;;;;;;4903211;29;20467;-86
2023/08/14 08:06:56;;;;;;;17.10;16.40;;;24.40;99.90;;;;;;4909822;29;20541;-86
2023/08/14 08:09:33;;;;;;;17.57;16.83;;;24.40;99.90;;;;;;4908662;29;20482;-86
2023/08/14 08:12:06;;;;;;;17.67;17.03;;;24.40;99.90;;;;;;4905845;29;20847;-86
2023/08/14 08:14:38;;;;;;;17.57;16.90;;;24.50;99.90;;;;;;4921802;29;21214;-86
2023/08/14 08:17:12;;;;;;;17.70;17.10;;;24.60;1.00;;;;;;4901525;29;20554;-86
2023/08/14 08:19:40;;;;;;;17.10;16.50;;;24.50;99.90;;;;;;4904287;29;20455;-87
2023/08/14 08:22:13;;;;;;;16.63;16.13;;;24.50;1.00;;;;;;4908694;29;20885;-89
2023/08/14 08:24:43;;;;;;;17.93;17.10;;;24.50;99.90;;;;;;4906240;29;20458;-87
2023/08/14 08:27:15;;;;;;;17.40;16.70;;;24.60;1.00;;;;;;4904127;29;20462;-87
2023/08/14 08:29:53;;;;;;;17.10;16.50;;;24.70;1.00;;;;;;4906644;29;20486;-86
2023/08/14 08:32:31;;;;;;;17.33;16.70;;;24.70;99.90;;;;;;4918566;29;20897;-87
2023/08/14 08:35:16;;;;;;;16.60;16.00;;;24.70;99.90;;;;;;4906446;29;20620;-86
2023/08/14 08:37:48;;;;;;;18.00;17.10;;;24.70;1.00;;;;;;4905451;29;20525;-86
2023/08/14 08:40:29;;;;;;;17.77;17.07;;;24.80;99.90;;;;;;4919054;29;20462;-88
2023/08/14 08:43:10;;;;;;;17.50;16.90;;;24.80;99.90;;;;;;4910955;28;20533;-85
2023/08/14 08:45:58;;;;;;;17.20;16.50;;;24.90;1.00;;;;;;4905614;29;20489;-88
2023/08/14 08:48:33;;;;;;;17.10;16.50;;;24.90;38.50;;;;;;4905203;29;20458;-85
2023/08/14 08:51:11;;;;;;;17.10;16.50;;;25.00;99.90;;;;;;4903400;29;20568;-87
2023/08/14 08:53:47;;;;;;;17.03;16.43;;;25.00;1.00;;;;;;4902511;29;20466;-85
2023/08/14 08:56:24;;;;;;;17.70;17.03;;;25.10;1.00;;;;;;4908644;29;20486;-89
2023/08/14 08:58:59;;;;;;;17.93;17.23;;;25.10;1.00;;;;;;4903451;29;20461;-86
2023/08/14 09:01:39;;;;;;;17.33;16.53;;;25.20;99.90;;;;;;4902745;29;20453;-85
2023/08/14 09:04:23;;;;;;;17.53;16.83;;;25.20;99.90;;;;;;4903979;29;20461;-86
2023/08/14 09:06:53;;;;;;;17.17;16.57;;;25.20;99.90;;;;;;4905612;29;20481;-85
2023/08/14 09:09:28;;;;;;;18.23;17.37;;;25.30;99.90;;;;;;4901932;29;20469;-87
2023/08/14 09:12:07;;;;;;;17.63;16.93;;;25.40;99.90;;;;;;4909123;29;20611;-87
2023/08/14 09:14:47;;;;;;;17.53;16.87;;;25.40;1.00;;;;;;4903624;29;20446;-88
2023/08/14 09:17:23;;;;;;;17.63;17.03;;;25.40;1.00;;;;;;4917852;29;20555;-89
2023/08/14 09:19:55;;;;;;;18.10;17.40;;;25.50;1.00;;;;;;4903816;29;20484;-88
2023/08/14 09:22:41;;;;;;;17.83;17.23;;;25.60;99.90;;;;;;4901532;29;20457;-88
2023/08/14 09:25:15;;;;;;;18.97;18.17;;;25.70;99.90;;;;;;4903061;29;20897;-86
2023/08/14 09:27:57;;;;;;;18.67;17.97;;;25.60;99.90;;;;;;4902406;29;20513;-86
2023/08/14 09:30:40;;;;;;;18.47;17.67;;;25.60;99.90;;;;;;4901865;29;20506;-88
2023/08/14 09:33:11;;;;;;;18.37;17.60;;;25.70;15.80;;;;;;4902956;29;20455;-85
2023/08/14 09:35:56;;;;;;;19.00;18.00;;;25.70;99.90;;;;;;4903468;29;20537;-87
2023/08/14 09:38:46;;;;;;;19.13;18.40;;;25.80;1.00;;;;;;4902264;29;20696;-87
2023/08/14 09:41:20;;;;;;;19.10;18.40;;;25.80;1.00;;;;;;4904338;29;20504;-86
2023/08/14 09:44:07;;;;;;;19.30;18.30;;;25.90;1.00;;;;;;4904174;29;20471;-86
2023/08/14 09:46:44;;;;;;;18.87;18.07;;;26.00;1.00;;;;;;4902457;29;20886;-86
2023/08/14 09:49:18;;;;;;;19.10;18.33;;;26.00;99.90;;;;;;4903541;29;20553;-86
2023/08/14 09:52:01;;;;;;;19.17;18.33;;;26.00;1.00;;;;;;4901020;29;20565;-86
2023/08/14 09:54:34;;;;;;;19.60;18.70;;;26.10;1.00;;;;;;4906026;29;20457;-87
2023/08/14 09:57:12;;;;;;;19.70;18.80;;;26.20;99.90;;;;;;4904555;29;20476;-86
2023/08/14 10:00:01;;;;;;;19.63;18.93;;;26.20;99.90;;;;;;4917214;29;20466;-85
2023/08/14 10:02:36;;;;;;;19.17;18.27;;;26.20;99.90;;;;;;4909283;29;20472;-86
2023/08/14 10:05:09;;;;;;;20.80;19.87;;;26.30;99.90;;;;;;4910501;29;20525;-86
2023/08/14 10:07:44;;;;;;;19.47;18.77;;;26.40;99.90;;;;;;4904294;29;20462;-86
2023/08/14 10:10:25;;;;;;;20.53;19.63;;;26.50;99.90;;;;;;4902641;29;20498;-86
2023/08/14 10:13:05;;;;;;;19.53;18.80;;;26.60;99.90;;;;;;4903161;29;20996;-87
2023/08/14 10:15:49;;;;;;;19.20;18.40;;;26.70;99.90;;;;;;4908261;29;20824;-86
2023/08/14 10:18:25;;;;;;;19.73;18.80;;;26.70;99.90;;;;;;4903136;29;20530;-86
2023/08/14 10:21:05;;;;;;;19.73;18.90;;;26.80;99.90;;;;;;4902391;29;20565;-86
2023/08/14 10:23:37;;;;;;;19.67;18.87;;;26.80;99.90;;;;;;4904223;29;20469;-86
2023/08/14 10:26:13;;;;;;;19.47;18.67;;;26.80;99.90;;;;;;4903770;29;20557;-87
2023/08/14 10:28:44;;;;;;;19.70;18.80;;;26.90;99.90;;;;;;4904306;29;20465;-87
2023/08/14 10:31:21;;;;;;;19.13;18.43;;;26.90;99.90;;;;;;4902814;29;20490;-86
2023/08/14 10:33:58;;;;;;;19.40;18.50;;;27.00;99.90;;;;;;4903219;29;20466;-88
2023/08/14 10:36:31;;;;;;;19.30;18.50;;;27.10;99.90;;;;;;4902758;29;20494;-86
2023/08/14 10:39:09;;;;;;;20.60;19.40;;;27.20;99.90;;;;;;4902510;29;20471;-88
2023/08/14 10:41:53;;;;;;;20.23;19.27;;;27.20;99.90;;;;;;4909332;29;20450;-87
2023/08/14 10:44:34;;;;;;;18.87;18.17;;;27.20;99.90;;;;;;4905451;29;21071;-85
2023/08/14 10:47:20;;;;;;;19.37;18.50;;;27.20;99.90;;;;;;4907869;29;20473;-85
2023/08/14 10:49:59;;;;;;;18.90;18.20;;;27.20;1.00;;;;;;4919970;29;20558;-85
2023/08/14 10:52:35;;;;;;;19.83;18.93;;;27.20;1.00;;;;;;4907621;29;20570;-86
2023/08/14 10:55:20;;;;;;;20.13;18.87;;;27.20;1.00;;;;;;4907827;29;20481;-85
2023/08/14 10:57:58;;;;;;;20.33;19.20;;;27.20;3.80;;;;;;4910513;29;20461;-87
2023/08/14 11:00:29;;;;;;;18.93;18.20;;;27.10;1.00;;;;;;4909944;29;20451;-86
2023/08/14 11:03:11;;;;;;;18.73;17.83;;;27.20;1.00;;;;;;4911941;29;20959;-87
2023/08/14 11:05:45;;;;;;;18.87;18.07;;;27.10;1.00;;;;;;4912872;29;20485;-85
2023/08/14 11:08:18;;;;;;;18.60;17.90;;;27.20;1.00;;;;;;4907167;29;20510;-86
2023/08/14 11:10:57;;;;;;;19.60;18.60;;;27.20;1.00;;;;;;4910466;29;20473;-86
2023/08/14 11:13:32;;;;;;;19.60;18.77;;;27.10;1.00;;;;;;4908876;29;20504;-85
2023/08/14 11:16:09;;;;;;;19.43;18.43;;;27.10;19.70;;;;;;4904964;29;20481;-85
2023/08/14 11:18:48;;;;;;;19.10;18.30;;;27.10;1.00;;;;;;4905730;29;21046;-86
2023/08/14 11:21:22;;;;;;;19.07;18.10;;;27.20;40.40;;;;;;4904954;29;20549;-85
2023/08/14 11:24:01;;;;;;;19.50;18.73;;;27.30;40.50;;;;;;4907872;29;20447;-89
2023/08/14 11:26:34;;;;;;;18.53;17.73;;;27.40;8.20;;;;;;4923702;29;20496;-88
2023/08/14 11:29:07;;;;;;;16.00;15.50;;;27.40;1.00;;;;;;4905657;29;20468;-86
2023/08/14 11:31:48;;;;;;;17.63;16.93;;;27.40;1.00;;;;;;4907582;29;20476;-87
2023/08/14 11:34:25;;;;;;;19.60;18.60;;;27.40;1.00;;;;;;4906906;29;20447;-86
2023/08/14 11:37:02;;;;;;;18.30;17.60;;;27.40;1.00;;;;;;4904421;29;20472;-85
2023/08/14 11:39:42;;;;;;;19.50;18.60;;;27.50;1.00;;;;;;4907385;29;20489;-88
2023/08/14 11:42:20;;;;;;;19.70;18.50;;;27.60;1.00;;;;;;4911314;29;20475;-84
2023/08/14 11:44:52;;;;;;;19.23;18.40;;;27.60;1.00;;;;;;4906155;29;20484;-85
2023/08/14 11:47:30;;;;;;;18.70;17.97;;;27.50;1.00;;;;;;4902257;29;20474;-88
2023/08/14 11:50:12;;;;;;;18.97;18.13;;;27.50;1.00;;;;;;4907937;29;20461;-87
2023/08/14 11:52:51;;;;;;;19.23;18.43;;;27.50;1.00;;;;;;4905114;29;20871;-85
2023/08/14 11:55:28;;;;;;;18.97;18.17;;;27.60;1.00;;;;;;4901345;29;20477;-86
2023/08/14 11:58:03;;;;;;;19.50;18.80;;;27.50;1.00;;;;;;4908653;29;20462;-89
2023/08/14 12:00:37;;;;;;;19.03;18.23;;;27.50;1.00;;;;;;4905207;29;20471;-86
2023/08/14 12:03:11;;;;;;;18.17;17.40;;;27.40;1.00;;;;;;4902253;29;20892;-86
2023/08/14 12:05:45;;;;;;;19.03;18.20;;;27.40;1.00;;;;;;4903583;29;20554;-86
2023/08/14 12:08:26;;;;;;;18.83;18.13;;;27.30;1.00;;;;;;4903941;29;20480;-86
2023/08/14 12:11:00;;;;;;;18.93;18.23;;;27.20;1.00;;;;;;4902561;29;20971;-86
2023/08/14 12:13:35;;;;;;;18.10;17.50;;;27.20;1.00;;;;;;4906545;29;20465;-87
2023/08/14 12:16:11;;;;;;;18.50;17.70;;;27.10;1.00;;;;;;4905413;29;20489;-86
2023/08/14 12:18:57;;;;;;;18.47;17.80;;;27.10;1.00;;;;;;4907524;29;20485;-85
2023/08/14 12:21:40;;;;;;;18.77;17.93;;;27.00;1.00;;;;;;4902758;29;20467;-89
2023/08/14 12:24:42;;;;;;;17.93;17.23;;;27.00;99.90;;;;;;4903822;29;20570;-87
2023/08/14 12:27:23;;;;;;;18.60;17.80;;;27.00;99.90;;;;;;4900541;29;20459;-87
2023/08/14 12:30:01;;;;;;;18.10;17.40;;;27.00;99.90;;;;;;4904679;29;21025;-86
2023/08/14 12:32:38;;;;;;;19.43;18.30;;;27.00;99.90;;;;;;4905537;29;20486;-88
2023/08/14 12:35:13;;;;;;;18.43;17.73;;;26.90;99.90;;;;;;4906902;29;20478;-86
2023/08/14 12:37:54;;;;;;;19.47;18.60;;;26.90;1.00;;;;;;4905837;29;20445;-85
2023/08/14 12:40:30;;;;;;;19.10;18.00;;;26.90;1.00;;;;;;4904624;29;20864;-86
2023/08/14 12:43:06;;;;;;;18.53;17.80;;;26.80;1.00;;;;;;4921810;29;20466;-87
2023/08/14 12:45:37;;;;;;;19.00;18.20;;;26.80;1.00;;;;;;4905152;29;20919;-86
2023/08/14 12:48:20;;;;;;;19.17;18.33;;;26.80;1.00;;;;;;4906590;29;20484;-85
2023/08/14 12:50:55;;;;;;;18.93;18.03;;;26.80;1.00;;;;;;4901548;29;20477;-86
2023/08/14 12:53:33;;;;;;;18.17;17.27;;;26.80;22.40;;;;;;4904267;29;20490;-88
2023/08/14 12:56:10;;;;;;;18.97;18.00;;;26.80;42.40;;;;;;4905319;29;20840;-85
2023/08/14 12:58:48;;;;;;;18.47;17.63;;;26.80;78.50;;;;;;4906796;29;20464;-87
2023/08/14 13:01:26;;;;;;;18.50;17.70;;;26.90;99.90;;;;;;4902398;29;20565;-85
2023/08/14 13:04:11;;;;;;;19.07;17.97;;;26.90;99.90;;;;;;4904966;29;20468;-85
2023/08/14 13:06:50;;;;;;;19.23;18.13;;;27.10;99.90;;;;;;4906090;29;20512;-87
2023/08/14 13:09:24;;;;;;;18.87;18.07;;;27.20;99.90;;;;;;4907129;28;20462;-86
2023/08/14 13:11:55;;;;;;;19.17;18.37;;;27.30;99.90;;;;;;4905109;29;20538;-85
2023/08/14 13:14:35;;;;;;;19.63;18.63;;;27.40;99.90;;;;;;4905611;29;20537;-87
2023/08/14 13:17:06;;;;;;;19.53;18.63;;;27.50;99.90;;;;;;4906125;29;20480;-86
2023/08/14 13:19:43;;;;;;;19.43;18.60;;;27.50;99.90;;;;;;4904059;29;20474;-89